Time;durP1;ratioP1;P1;durP2;ratioP2;P2;SDS_P1;SDS_P2;PMS_P1;PMS_P2;Temp;Humidity;BMP_temperature;BMP_pressure;BME280_temperature;BME280_humidity;BME280_pressure;Samples;Min_cycle;Max_cycle;Signal;HPM_P1;HPM_P2
2023/06/29 00:01:03;;;;;;;19.05;12.52;;;18.50;99.90;;;;;;4977453;28;20047;-72
2023/06/29 00:03:29;;;;;;;17.58;12.27;;;18.50;99.90;;;;;;4978285;28;20047;-72
2023/06/29 00:05:55;;;;;;;15.93;12.15;;;18.50;99.90;;;;;;4977186;28;20043;-72
2023/06/29 00:08:29;;;;;;;21.25;13.07;;;18.50;99.90;;;;;;4976192;28;20154;-72
2023/06/29 00:10:56;;;;;;;20.75;12.60;;;18.50;99.90;;;;;;4976093;28;20043;-72
2023/06/29 00:13:24;;;;;;;18.23;12.48;;;18.50;99.90;;;;;;4975585;28;20055;-72
2023/06/29 00:15:49;;;;;;;18.08;11.40;;;18.50;99.90;;;;;;4975439;28;20574;-72
2023/06/29 00:18:16;;;;;;;18.85;12.35;;;18.50;99.90;;;;;;4975518;28;20137;-72
2023/06/29 00:20:42;;;;;;;16.77;12.18;;;18.40;99.90;;;;;;4975489;28;20073;-72
2023/06/29 00:23:08;;;;;;;15.25;11.52;;;18.50;99.90;;;;;;4975429;28;20065;-72
2023/06/29 00:25:34;;;;;;;16.58;11.20;;;18.50;99.90;;;;;;4975312;28;20503;-72
2023/06/29 00:28:01;;;;;;;17.60;12.10;;;18.50;99.90;;;;;;4958468;28;20065;-72
2023/06/29 00:30:28;;;;;;;15.45;12.00;;;18.50;99.90;;;;;;4974627;28;20046;-73
2023/06/29 00:32:54;;;;;;;18.73;12.02;;;18.50;99.90;;;;;;4976014;28;20055;-72
2023/06/29 00:35:19;;;;;;;17.23;12.40;;;18.50;99.90;;;;;;4975144;28;20448;-72
2023/06/29 00:37:45;;;;;;;17.15;11.77;;;18.40;99.90;;;;;;4975950;28;20053;-72
2023/06/29 00:40:12;;;;;;;21.98;12.35;;;18.40;99.90;;;;;;4975177;28;20471;-73
2023/06/29 00:42:37;;;;;;;18.67;12.85;;;18.40;99.90;;;;;;4975079;28;20050;-72
2023/06/29 00:45:04;;;;;;;14.60;11.90;;;18.40;99.90;;;;;;4974012;28;20047;-72
2023/06/29 00:47:31;;;;;;;16.08;11.23;;;18.30;99.90;;;;;;4975091;28;20085;-71
2023/06/29 00:49:57;;;;;;;15.68;11.18;;;18.40;99.90;;;;;;4975738;28;20377;-71
2023/06/29 00:52:23;;;;;;;18.90;11.38;;;18.40;99.90;;;;;;4974960;28;20053;-71
2023/06/29 00:54:49;;;;;;;17.33;11.93;;;18.30;99.90;;;;;;4974973;28;20074;-71
2023/06/29 00:57:15;;;;;;;19.35;12.30;;;18.40;99.90;;;;;;4974896;28;20046;-71
2023/06/29 00:59:41;;;;;;;18.23;12.07;;;18.40;99.90;;;;;;4974561;28;20538;-71
2023/06/29 01:02:10;;;;;;;16.33;11.40;;;18.30;99.90;;;;;;4975338;28;20051;-71
2023/06/29 01:04:37;;;;;;;17.77;11.50;;;18.30;99.90;;;;;;4974584;28;20501;-72
2023/06/29 01:07:15;;;;;;;16.90;12.02;;;18.30;99.90;;;;;;4974803;28;20057;-72
2023/06/29 01:09:44;;;;;;;14.85;10.90;;;18.30;99.90;;;;;;4975320;28;20050;-72
2023/06/29 01:12:15;;;;;;;17.15;11.32;;;18.30;99.90;;;;;;4974800;28;20047;-71
2023/06/29 01:14:42;;;;;;;18.05;11.50;;;18.30;99.90;;;;;;4974774;28;20129;-71
2023/06/29 01:17:14;;;;;;;17.55;11.57;;;18.30;99.90;;;;;;4974313;28;20400;-71
2023/06/29 01:19:44;;;;;;;17.75;11.13;;;18.30;99.90;;;;;;4974711;28;20055;-71
2023/06/29 01:22:35;;;;;;;15.55;10.30;;;18.30;99.90;;;;;;4974593;28;20046;-71
2023/06/29 01:25:01;;;;;;;15.73;10.73;;;18.40;99.90;;;;;;4974725;28;20055;-71
2023/06/29 01:27:27;;;;;;;14.30;10.98;;;18.30;99.90;;;;;;4974675;28;20072;-71
2023/06/29 01:29:55;;;;;;;13.90;10.40;;;18.30;99.90;;;;;;4974512;28;20061;-71
2023/06/29 01:32:25;;;;;;;13.93;10.02;;;18.30;99.90;;;;;;4974807;28;20062;-71
2023/06/29 01:34:51;;;;;;;15.90;10.23;;;18.30;99.90;;;;;;4975132;28;20058;-71
2023/06/29 01:37:19;;;;;;;14.73;10.40;;;18.30;99.90;;;;;;4973270;28;20109;-71
2023/06/29 01:40:07;;;;;;;14.88;10.57;;;18.30;99.90;;;;;;4974532;28;20042;-71
2023/06/29 01:42:33;;;;;;;15.05;10.55;;;18.30;99.90;;;;;;4974509;28;20480;-72
2023/06/29 01:45:02;;;;;;;17.58;11.15;;;18.30;99.90;;;;;;4974430;28;20089;-72
2023/06/29 01:47:28;;;;;;;15.85;10.77;;;18.30;99.90;;;;;;4973267;28;20427;-72
2023/06/29 01:49:54;;;;;;;15.15;10.55;;;18.30;99.90;;;;;;4974806;28;20042;-72
2023/06/29 01:52:20;;;;;;;15.82;10.63;;;18.20;99.90;;;;;;4974339;28;20043;-71
2023/06/29 01:54:45;;;;;;;13.65;10.52;;;18.20;99.90;;;;;;4974370;28;20050;-71
2023/06/29 01:57:12;;;;;;;13.80;10.05;;;18.30;99.90;;;;;;4976822;28;20042;-72
2023/06/29 01:59:38;;;;;;;16.58;11.10;;;18.30;99.90;;;;;;4961922;28;20109;-71
2023/06/29 02:02:05;;;;;;;15.48;10.73;;;18.20;99.90;;;;;;4977948;28;20247;-72
2023/06/29 02:04:31;;;;;;;15.82;10.45;;;18.20;99.90;;;;;;4977889;28;20051;-72
2023/06/29 02:06:57;;;;;;;18.17;10.27;;;18.20;99.90;;;;;;4976975;28;20126;-72
2023/06/29 02:09:22;;;;;;;16.35;10.30;;;18.20;99.90;;;;;;4977799;28;20178;-72
2023/06/29 02:11:48;;;;;;;13.88;10.60;;;18.20;99.90;;;;;;4977727;28;20197;-71
2023/06/29 02:14:16;;;;;;;16.67;10.35;;;18.30;99.90;;;;;;4977463;28;20190;-71
2023/06/29 02:16:43;;;;;;;17.60;10.88;;;18.30;99.90;;;;;;4977728;28;20051;-71
2023/06/29 02:19:09;;;;;;;14.93;10.75;;;18.30;99.90;;;;;;4976368;28;20051;-71
2023/06/29 02:21:35;;;;;;;16.02;11.05;;;18.30;99.90;;;;;;4976464;28;20385;-71
2023/06/29 02:24:00;;;;;;;14.10;10.27;;;18.30;99.90;;;;;;4977862;28;20074;-71
2023/06/29 02:26:26;;;;;;;16.75;10.52;;;18.30;99.90;;;;;;4978064;28;20050;-71
2023/06/29 02:28:52;;;;;;;16.60;10.82;;;18.30;99.90;;;;;;4977509;28;20058;-71
2023/06/29 02:31:18;;;;;;;15.93;10.65;;;18.30;99.90;;;;;;4977189;28;20062;-71
2023/06/29 02:33:44;;;;;;;15.43;10.05;;;18.30;99.90;;;;;;4977461;28;20054;-71
2023/06/29 02:36:10;;;;;;;15.63;10.82;;;18.30;99.90;;;;;;4977349;28;20121;-71
2023/06/29 02:38:36;;;;;;;17.10;11.02;;;18.30;99.90;;;;;;4977379;28;20043;-71
2023/06/29 02:41:01;;;;;;;16.85;10.45;;;18.30;99.90;;;;;;4977275;28;20069;-71
2023/06/29 02:43:27;;;;;;;18.10;11.02;;;18.30;99.90;;;;;;4977303;28;20059;-71
2023/06/29 02:45:53;;;;;;;16.88;11.07;;;18.30;99.90;;;;;;4977679;28;20416;-71
2023/06/29 02:48:18;;;;;;;15.95;11.10;;;18.30;99.90;;;;;;4977464;28;20436;-71
2023/06/29 02:50:44;;;;;;;16.48;11.52;;;18.30;99.90;;;;;;4977295;28;20464;-71
2023/06/29 02:53:14;;;;;;;15.50;10.82;;;18.30;99.90;;;;;;4977388;28;20073;-71
2023/06/29 02:55:40;;;;;;;17.95;11.85;;;18.20;99.90;;;;;;4976981;28;20050;-70
2023/06/29 02:58:05;;;;;;;14.13;10.85;;;18.20;99.90;;;;;;4976975;28;20084;-71
2023/06/29 03:00:31;;;;;;;15.40;11.43;;;18.20;99.90;;;;;;4976967;28;20058;-71
2023/06/29 03:02:57;;;;;;;18.20;10.68;;;18.20;99.90;;;;;;4976654;28;20535;-72
2023/06/29 03:05:23;;;;;;;15.77;10.70;;;18.20;99.90;;;;;;4977197;28;20503;-71
2023/06/29 03:07:48;;;;;;;16.85;12.07;;;18.20;99.90;;;;;;4975546;28;20046;-71
2023/06/29 03:10:14;;;;;;;14.93;11.18;;;18.20;99.90;;;;;;4976753;28;20082;-71
2023/06/29 03:12:41;;;;;;;17.73;12.02;;;18.20;99.90;;;;;;4976718;28;20097;-72
2023/06/29 03:15:07;;;;;;;14.88;11.27;;;18.20;99.90;;;;;;4976689;28;20090;-72
2023/06/29 03:17:33;;;;;;;18.35;12.52;;;18.20;99.90;;;;;;4977174;28;20043;-72
2023/06/29 03:19:58;;;;;;;21.10;12.85;;;18.20;99.90;;;;;;4976960;28;20097;-72
2023/06/29 03:22:26;;;;;;;19.80;12.57;;;18.20;99.90;;;;;;4975416;28;20054;-72
2023/06/29 03:24:52;;;;;;;17.38;11.45;;;18.20;99.90;;;;;;4976008;28;20117;-71
2023/06/29 03:27:18;;;;;;;16.48;11.68;;;18.30;99.90;;;;;;4976273;28;20097;-72
2023/06/29 03:29:44;;;;;;;16.42;11.90;;;18.30;99.90;;;;;;4976131;28;20046;-72
2023/06/29 03:32:10;;;;;;;17.65;12.00;;;18.20;99.90;;;;;;4976475;28;20059;-71
2023/06/29 03:34:36;;;;;;;19.33;13.07;;;18.30;99.90;;;;;;4975963;28;20090;-70
2023/06/29 03:37:01;;;;;;;18.20;12.45;;;18.30;99.90;;;;;;4976096;28;20061;-71
2023/06/29 03:39:27;;;;;;;17.95;11.93;;;18.30;99.90;;;;;;4976140;28;20492;-71
2023/06/29 03:41:53;;;;;;;19.45;11.68;;;18.30;99.90;;;;;;4976170;28;20057;-71
2023/06/29 03:44:18;;;;;;;18.48;12.60;;;18.30;99.90;;;;;;4976176;28;20476;-71
2023/06/29 03:46:44;;;;;;;18.38;12.52;;;18.40;99.90;;;;;;4976393;28;20047;-71
2023/06/29 03:49:10;;;;;;;18.58;12.27;;;18.30;99.90;;;;;;4976054;28;20089;-71
2023/06/29 03:51:35;;;;;;;16.65;11.93;;;18.40;99.90;;;;;;4975867;28;20085;-71
2023/06/29 03:54:01;;;;;;;19.15;12.45;;;18.30;99.90;;;;;;4975980;28;20047;-72
2023/06/29 03:56:27;;;;;;;18.27;12.82;;;18.30;99.90;;;;;;4975955;28;20090;-72
2023/06/29 03:58:52;;;;;;;19.17;12.57;;;18.30;99.90;;;;;;4976361;28;20055;-72
2023/06/29 04:01:18;;;;;;;19.55;12.70;;;18.40;99.90;;;;;;4975026;28;20125;-72
2023/06/29 04:03:44;;;;;;;18.65;13.00;;;18.40;99.90;;;;;;4975464;28;20094;-72
2023/06/29 04:06:09;;;;;;;19.60;13.05;;;18.40;99.90;;;;;;4975602;28;20050;-72
2023/06/29 04:08:35;;;;;;;19.75;13.32;;;18.40;99.90;;;;;;4975768;28;20373;-72
2023/06/29 04:11:01;;;;;;;19.13;12.98;;;18.50;99.90;;;;;;4976355;28;20464;-71
2023/06/29 04:13:26;;;;;;;18.92;13.18;;;18.50;99.90;;;;;;4975530;28;20193;-72
2023/06/29 04:15:53;;;;;;;18.77;13.60;;;18.50;99.90;;;;;;4975523;28;20476;-71
2023/06/29 04:18:19;;;;;;;20.35;12.82;;;18.50;99.90;;;;;;4975220;28;20130;-72
2023/06/29 04:20:44;;;;;;;21.40;13.57;;;18.50;99.90;;;;;;4974913;28;20531;-71
2023/06/29 04:23:14;;;;;;;17.02;13.38;;;18.60;99.90;;;;;;4975712;28;20177;-72
2023/06/29 04:25:42;;;;;;;17.80;12.25;;;18.60;99.90;;;;;;4975648;28;20391;-72
2023/06/29 04:28:09;;;;;;;17.77;12.75;;;18.60;99.90;;;;;;4976160;28;20046;-72
2023/06/29 04:30:38;;;;;;;21.65;13.88;;;18.60;99.90;;;;;;4975755;28;20050;-71
2023/06/29 04:33:09;;;;;;;21.48;14.48;;;18.60;99.90;;;;;;4975719;28;20109;-71
2023/06/29 04:35:39;;;;;;;21.23;13.85;;;18.60;99.90;;;;;;4975377;28;20449;-71
2023/06/29 04:38:05;;;;;;;20.55;13.27;;;18.70;99.90;;;;;;4975221;28;20125;-71
2023/06/29 04:40:31;;;;;;;20.80;14.10;;;18.70;99.90;;;;;;4975167;28;20054;-70
2023/06/29 04:42:57;;;;;;;19.95;13.60;;;18.70;99.90;;;;;;4975587;28;20050;-72
2023/06/29 04:45:24;;;;;;;21.42;14.45;;;18.70;99.90;;;;;;4974401;28;20129;-72
2023/06/29 04:47:50;;;;;;;19.98;14.00;;;18.70;99.90;;;;;;4975013;28;20042;-71
2023/06/29 04:50:25;;;;;;;19.88;13.52;;;18.80;99.90;;;;;;4975499;28;20046;-71
2023/06/29 04:52:55;;;;;;;17.92;12.70;;;18.80;99.90;;;;;;4975094;28;20050;-71
2023/06/29 04:55:22;;;;;;;19.48;12.93;;;18.80;99.90;;;;;;4974934;28;20183;-72
2023/06/29 04:57:48;;;;;;;18.65;12.80;;;18.80;99.90;;;;;;4975045;28;20490;-72
2023/06/29 05:00:14;;;;;;;18.08;12.68;;;18.80;99.90;;;;;;4975355;28;20070;-72
2023/06/29 05:02:41;;;;;;;21.25;13.15;;;18.90;99.90;;;;;;4975360;28;20043;-71
2023/06/29 05:05:08;;;;;;;19.77;13.85;;;18.90;99.90;;;;;;4976507;28;20117;-71
2023/06/29 05:07:34;;;;;;;16.50;12.90;;;19.00;99.90;;;;;;4976546;28;20550;-71
2023/06/29 05:10:00;;;;;;;18.88;12.48;;;19.10;99.90;;;;;;4975293;28;20043;-72
2023/06/29 05:12:26;;;;;;;22.10;13.88;;;19.10;99.90;;;;;;4975241;28;20130;-71
2023/06/29 05:14:52;;;;;;;20.15;14.10;;;19.20;99.90;;;;;;4974770;28;20126;-71
2023/06/29 05:17:18;;;;;;;20.15;13.93;;;19.20;99.90;;;;;;4973538;28;20050;-71
2023/06/29 05:19:44;;;;;;;20.75;13.82;;;19.20;99.90;;;;;;4974945;28;20042;-71
2023/06/29 05:22:10;;;;;;;19.40;14.35;;;19.30;99.90;;;;;;4975062;28;20043;-71
2023/06/29 05:24:37;;;;;;;22.30;14.25;;;19.40;99.90;;;;;;4975306;28;20043;-71
2023/06/29 05:27:03;;;;;;;23.80;14.90;;;19.40;99.90;;;;;;4973575;28;20055;-70
2023/06/29 05:29:29;;;;;;;21.02;14.77;;;19.60;99.90;;;;;;4975159;28;20092;-70
2023/06/29 05:31:54;;;;;;;23.20;15.00;;;19.60;99.90;;;;;;4976799;28;20488;-70
2023/06/29 05:34:20;;;;;;;22.95;14.85;;;19.70;99.90;;;;;;4978508;28;20073;-70
2023/06/29 05:36:46;;;;;;;23.83;15.57;;;19.80;99.90;;;;;;4978769;28;20047;-70
2023/06/29 05:39:12;;;;;;;22.88;15.90;;;19.80;99.90;;;;;;4978408;28;20051;-71
2023/06/29 05:41:38;;;;;;;20.27;14.02;;;19.80;99.90;;;;;;4978307;28;20043;-70
2023/06/29 05:44:04;;;;;;;22.33;14.55;;;19.90;99.90;;;;;;4978368;28;20051;-70
2023/06/29 05:46:30;;;;;;;20.20;14.70;;;19.90;99.90;;;;;;4978275;28;20395;-70
2023/06/29 05:48:55;;;;;;;23.83;14.93;;;19.90;99.90;;;;;;4978176;28;20046;-70
2023/06/29 05:51:21;;;;;;;22.17;14.70;;;20.00;99.90;;;;;;4978186;28;20078;-71
2023/06/29 05:53:47;;;;;;;20.35;14.63;;;20.00;99.90;;;;;;4978452;28;20125;-70
2023/06/29 05:56:12;;;;;;;22.00;14.55;;;20.10;99.90;;;;;;4978914;28;20472;-70
2023/06/29 05:58:38;;;;;;;20.73;15.38;;;20.10;99.90;;;;;;4978031;28;20082;-71
2023/06/29 06:01:04;;;;;;;21.48;15.00;;;20.10;99.90;;;;;;4977960;28;20041;-72
2023/06/29 06:03:29;;;;;;;22.15;15.30;;;20.20;99.90;;;;;;4978247;28;20051;-71
2023/06/29 06:05:55;;;;;;;21.20;14.25;;;20.20;99.90;;;;;;4977946;28;20480;-72
2023/06/29 06:08:21;;;;;;;20.52;14.68;;;20.20;99.90;;;;;;4978174;28;20050;-70
2023/06/29 06:10:46;;;;;;;23.83;15.00;;;20.30;99.90;;;;;;4976584;28;20039;-71
2023/06/29 06:13:12;;;;;;;20.38;14.23;;;20.30;99.90;;;;;;4978086;28;20050;-64
2023/06/29 06:15:39;;;;;;;21.80;14.23;;;20.40;99.90;;;;;;4976854;28;20086;-63
2023/06/29 06:18:05;;;;;;;20.13;14.38;;;20.50;99.90;;;;;;4977747;28;20047;-64
2023/06/29 06:20:30;;;;;;;21.20;14.27;;;20.50;99.90;;;;;;4977583;28;20069;-63
2023/06/29 06:22:56;;;;;;;24.63;14.88;;;20.60;99.90;;;;;;4977336;28;20046;-63
2023/06/29 06:25:22;;;;;;;19.55;13.98;;;20.60;99.90;;;;;;4978220;28;20113;-63
2023/06/29 06:27:47;;;;;;;20.73;14.00;;;20.70;99.90;;;;;;4978087;28;20047;-63
2023/06/29 06:30:13;;;;;;;22.15;14.75;;;20.80;99.90;;;;;;4978135;28;20048;-63
2023/06/29 06:32:39;;;;;;;21.92;15.55;;;20.80;99.90;;;;;;4977634;28;20054;-63
2023/06/29 06:35:08;;;;;;;25.52;15.95;;;20.80;99.90;;;;;;4977356;28;20079;-63
2023/06/29 06:37:38;;;;;;;24.00;16.90;;;20.80;99.90;;;;;;4977383;28;20051;-63
2023/06/29 06:40:08;;;;;;;23.00;17.00;;;20.80;99.90;;;;;;4977285;28;20598;-63
2023/06/29 06:42:40;;;;;;;24.65;16.10;;;20.70;99.90;;;;;;4977314;28;20411;-63
2023/06/29 06:45:06;;;;;;;24.35;16.73;;;20.70;99.90;;;;;;4978103;28;20085;-63
2023/06/29 06:47:34;;;;;;;22.13;16.08;;;20.70;99.90;;;;;;4977130;28;20054;-63
2023/06/29 06:50:00;;;;;;;22.75;16.92;;;20.70;99.90;;;;;;4977276;28;20126;-62
2023/06/29 06:52:26;;;;;;;27.65;17.13;;;20.60;99.90;;;;;;4977071;28;20089;-63
2023/06/29 06:54:53;;;;;;;23.23;16.45;;;20.70;99.90;;;;;;4977707;28;20083;-63
2023/06/29 06:57:19;;;;;;;25.73;17.33;;;20.70;99.90;;;;;;4976784;28;20053;-63
2023/06/29 06:59:45;;;;;;;23.73;16.63;;;20.70;99.90;;;;;;4976465;28;20499;-63
2023/06/29 07:02:11;;;;;;;25.95;16.65;;;20.80;99.90;;;;;;4976050;28;20058;-63
2023/06/29 07:04:37;;;;;;;22.60;16.83;;;20.80;99.90;;;;;;4976865;28;20065;-63
2023/06/29 07:07:03;;;;;;;24.58;17.33;;;20.80;99.90;;;;;;4975609;28;20043;-65
2023/06/29 07:09:29;;;;;;;23.60;16.65;;;20.90;99.90;;;;;;4975081;28;20046;-63
2023/06/29 07:11:55;;;;;;;27.80;17.55;;;20.90;99.90;;;;;;4977028;28;20039;-64
2023/06/29 07:14:23;;;;;;;22.25;16.27;;;20.90;99.90;;;;;;4977041;28;20055;-63
2023/06/29 07:16:49;;;;;;;22.98;16.52;;;20.90;99.90;;;;;;4975551;28;20062;-64
2023/06/29 07:19:16;;;;;;;25.17;16.48;;;20.90;99.90;;;;;;4976498;28;20138;-64
2023/06/29 07:21:42;;;;;;;22.25;16.27;;;20.90;99.90;;;;;;4976785;28;20038;-65
2023/06/29 07:24:08;;;;;;;23.70;16.17;;;20.90;99.90;;;;;;4976396;28;20574;-63
2023/06/29 07:26:34;;;;;;;20.63;15.63;;;20.90;99.90;;;;;;4976039;28;20057;-63
2023/06/29 07:29:00;;;;;;;21.70;16.20;;;20.90;99.90;;;;;;4976378;28;20394;-62
2023/06/29 07:31:27;;;;;;;24.00;16.50;;;20.90;99.90;;;;;;4975997;28;20154;-62
2023/06/29 07:33:55;;;;;;;22.50;15.93;;;20.90;99.90;;;;;;4976242;28;20097;-63
2023/06/29 07:36:21;;;;;;;26.58;16.63;;;21.00;99.90;;;;;;4976472;28;20487;-63
2023/06/29 07:38:47;;;;;;;21.83;15.77;;;21.00;99.90;;;;;;4976142;28;20058;-63
2023/06/29 07:41:14;;;;;;;20.42;15.52;;;21.10;99.90;;;;;;4976628;28;20045;-63
2023/06/29 07:43:41;;;;;;;25.48;15.63;;;21.10;99.90;;;;;;4975049;28;20121;-63
2023/06/29 07:46:07;;;;;;;24.33;16.23;;;21.20;99.90;;;;;;4976561;28;20055;-64
2023/06/29 07:48:32;;;;;;;22.67;16.98;;;21.30;99.90;;;;;;4976517;28;20042;-63
2023/06/29 07:50:58;;;;;;;23.33;15.55;;;21.50;99.90;;;;;;4976351;28;20482;-63
2023/06/29 07:53:25;;;;;;;22.08;15.38;;;21.50;99.90;;;;;;4975287;28;20455;-64
2023/06/29 07:55:50;;;;;;;20.23;14.73;;;21.60;99.90;;;;;;4975517;28;20085;-64
2023/06/29 07:58:17;;;;;;;19.98;14.98;;;21.60;99.90;;;;;;4975690;28;20082;-63
2023/06/29 08:00:43;;;;;;;20.98;15.45;;;21.70;99.90;;;;;;4975664;28;20122;-64
2023/06/29 08:03:09;;;;;;;20.55;14.50;;;21.70;99.90;;;;;;4976247;28;20137;-63
2023/06/29 08:05:34;;;;;;;21.25;14.65;;;21.70;99.90;;;;;;4975720;28;20043;-64
2023/06/29 08:08:00;;;;;;;21.00;14.35;;;21.70;99.90;;;;;;4976155;28;20101;-63
2023/06/29 08:10:26;;;;;;;21.70;14.70;;;21.70;99.90;;;;;;4975573;28;20039;-63
2023/06/29 08:12:52;;;;;;;21.65;16.00;;;21.80;99.90;;;;;;4976341;28;20043;-63
2023/06/29 08:15:17;;;;;;;21.67;15.18;;;21.90;99.90;;;;;;4974249;28;20090;-63
2023/06/29 08:17:43;;;;;;;21.88;14.35;;;22.10;99.90;;;;;;4975528;28;20137;-64
2023/06/29 08:20:12;;;;;;;23.33;15.88;;;22.30;99.90;;;;;;4974191;28;20043;-64
2023/06/29 08:22:38;;;;;;;20.98;13.63;;;22.40;99.90;;;;;;4975089;28;20066;-65
2023/06/29 08:25:04;;;;;;;22.17;15.45;;;22.50;99.90;;;;;;4974036;28;20039;-64
2023/06/29 08:27:30;;;;;;;22.58;14.50;;;22.50;99.90;;;;;;4975240;28;20093;-63
2023/06/29 08:29:56;;;;;;;23.83;15.35;;;22.40;99.90;;;;;;4974929;28;20443;-64
2023/06/29 08:32:22;;;;;;;20.67;14.45;;;22.30;99.90;;;;;;4976234;28;20077;-64
2023/06/29 08:34:47;;;;;;;21.50;15.30;;;22.30;99.90;;;;;;4974941;28;20061;-64
2023/06/29 08:37:13;;;;;;;23.92;15.48;;;22.20;99.90;;;;;;4974195;28;20137;-63
2023/06/29 08:39:39;;;;;;;23.08;15.10;;;22.10;99.90;;;;;;4975569;28;20399;-64
2023/06/29 08:42:05;;;;;;;21.20;15.02;;;22.10;99.90;;;;;;4974935;28;20043;-63
2023/06/29 08:44:31;;;;;;;21.05;14.93;;;22.10;99.90;;;;;;4975379;28;20046;-63
2023/06/29 08:47:00;;;;;;;21.90;15.23;;;22.20;99.90;;;;;;4974966;28;20176;-63
2023/06/29 08:49:27;;;;;;;22.20;14.82;;;22.20;99.90;;;;;;4974950;28;20051;-63
2023/06/29 08:51:58;;;;;;;23.92;14.82;;;22.20;99.90;;;;;;4975149;28;20423;-63
2023/06/29 08:54:26;;;;;;;22.20;14.52;;;22.20;99.90;;;;;;4974984;28;20137;-63
2023/06/29 08:56:52;;;;;;;23.42;15.68;;;22.20;99.90;;;;;;4974859;28;20061;-64
2023/06/29 08:59:18;;;;;;;19.98;14.10;;;22.20;99.90;;;;;;4975165;28;20054;-63
2023/06/29 09:01:45;;;;;;;20.88;14.07;;;22.20;99.90;;;;;;4974998;28;20495;-63
2023/06/29 09:04:11;;;;;;;22.13;15.40;;;22.20;99.90;;;;;;4975562;28;20059;-64
2023/06/29 09:06:40;;;;;;;21.27;14.10;;;22.30;99.90;;;;;;4974570;28;20099;-63
2023/06/29 09:09:07;;;;;;;21.30;13.70;;;22.30;99.90;;;;;;4974988;28;20082;-64
2023/06/29 09:11:33;;;;;;;21.95;14.07;;;22.40;99.90;;;;;;4974621;28;20399;-63
2023/06/29 09:14:04;;;;;;;20.50;14.10;;;22.60;99.90;;;;;;4975403;28;20084;-63
2023/06/29 09:16:30;;;;;;;20.00;13.15;;;22.70;99.90;;;;;;4975257;28;20380;-63
2023/06/29 09:18:58;;;;;;;20.10;13.60;;;22.80;99.90;;;;;;4974706;28;20185;-63
2023/06/29 09:21:25;;;;;;;18.63;12.48;;;22.90;99.90;;;;;;4974514;28;20051;-63
2023/06/29 09:23:54;;;;;;;18.52;13.10;;;23.00;99.90;;;;;;4974587;28;20218;-64
2023/06/29 09:26:25;;;;;;;20.48;13.32;;;23.10;99.90;;;;;;4974319;28;20051;-64
2023/06/29 09:28:57;;;;;;;18.08;12.43;;;23.10;99.90;;;;;;4974531;28;20089;-63
2023/06/29 09:31:25;;;;;;;18.90;12.90;;;23.10;99.90;;;;;;4973011;28;20448;-64
2023/06/29 09:33:51;;;;;;;18.33;12.73;;;23.10;99.90;;;;;;4974812;28;20073;-65
2023/06/29 09:36:23;;;;;;;20.40;13.63;;;23.20;99.90;;;;;;4974862;28;20464;-65
2023/06/29 09:38:49;;;;;;;19.20;12.98;;;23.20;99.90;;;;;;4975628;28;20047;-64
2023/06/29 09:41:15;;;;;;;20.55;13.65;;;23.20;99.90;;;;;;4973489;28;20051;-65
2023/06/29 09:43:41;;;;;;;20.00;13.27;;;23.10;99.90;;;;;;4974173;28;20043;-64
2023/06/29 09:46:08;;;;;;;19.25;13.80;;;23.10;99.90;;;;;;4974443;28;20093;-64
2023/06/29 09:48:43;;;;;;;20.15;13.82;;;23.00;99.90;;;;;;4974402;28;20042;-64
2023/06/29 09:51:09;;;;;;;19.65;13.77;;;23.00;99.90;;;;;;4974299;28;20035;-64
2023/06/29 09:53:34;;;;;;;17.60;12.95;;;23.10;99.90;;;;;;4974933;28;20167;-64
2023/06/29 09:56:02;;;;;;;23.02;12.77;;;23.10;99.90;;;;;;4974281;28;20042;-64
2023/06/29 09:58:29;;;;;;;18.80;13.10;;;23.10;99.90;;;;;;4974448;28;20046;-64
2023/06/29 10:00:58;;;;;;;19.25;13.43;;;23.10;99.90;;;;;;4974737;28;20078;-64
2023/06/29 10:03:30;;;;;;;19.42;13.65;;;23.10;99.90;;;;;;4973733;28;20384;-64
2023/06/29 10:06:03;;;;;;;18.58;12.05;;;23.00;99.90;;;;;;4975126;28;20058;-64
2023/06/29 10:08:32;;;;;;;18.13;13.40;;;23.00;99.90;;;;;;4974289;28;20133;-64
2023/06/29 10:11:01;;;;;;;19.80;13.13;;;23.00;99.90;;;;;;4974175;28;20054;-64
2023/06/29 10:13:28;;;;;;;19.45;12.93;;;22.90;99.90;;;;;;4974201;28;20062;-64
2023/06/29 10:15:54;;;;;;;18.02;12.30;;;22.80;99.90;;;;;;4974641;28;20085;-65
2023/06/29 10:18:28;;;;;;;19.27;13.82;;;22.70;99.90;;;;;;4976784;28;20050;-64
2023/06/29 10:20:55;;;;;;;20.05;13.25;;;22.60;99.90;;;;;;4977660;28;20046;-64
2023/06/29 10:23:22;;;;;;;17.42;12.85;;;22.40;99.90;;;;;;4977641;28;20046;-64
2023/06/29 10:25:50;;;;;;;19.45;12.23;;;22.40;99.90;;;;;;4977603;28;20066;-64
2023/06/29 10:28:17;;;;;;;16.75;11.65;;;22.30;99.90;;;;;;4977485;28;20054;-64
2023/06/29 10:30:48;;;;;;;17.30;11.80;;;22.30;99.90;;;;;;4977811;28;20106;-64
2023/06/29 10:33:44;;;;;;;18.02;12.80;;;22.20;99.90;;;;;;4978296;28;20479;-64
2023/06/29 10:36:13;;;;;;;17.35;12.45;;;22.20;99.90;;;;;;4977049;28;20467;-64
2023/06/29 10:38:39;;;;;;;20.02;13.32;;;22.10;99.90;;;;;;4977585;28;20046;-64
2023/06/29 10:41:06;;;;;;;16.95;11.90;;;22.10;99.90;;;;;;4976545;28;20086;-63
2023/06/29 10:43:53;;;;;;;18.48;12.68;;;22.00;99.90;;;;;;4977223;28;20134;-63
2023/06/29 10:46:48;;;;;;;18.17;12.88;;;22.00;99.90;;;;;;4977414;28;20047;-63
2023/06/29 10:49:22;;;;;;;17.83;11.80;;;22.00;99.90;;;;;;4977137;28;20050;-65
2023/06/29 10:52:00;;;;;;;19.75;12.80;;;21.90;99.90;;;;;;4976983;28;20046;-64
2023/06/29 10:54:26;;;;;;;18.63;12.68;;;21.90;99.90;;;;;;4977580;28;20051;-64
2023/06/29 10:57:06;;;;;;;20.00;13.35;;;21.90;99.90;;;;;;4976963;28;20137;-64
2023/06/29 10:59:34;;;;;;;20.05;13.35;;;21.90;99.90;;;;;;4976914;28;20051;-64
2023/06/29 11:02:00;;;;;;;18.05;12.25;;;21.80;99.90;;;;;;4976833;28;20171;-64
2023/06/29 11:04:28;;;;;;;19.45;13.40;;;21.80;99.90;;;;;;4976997;28;20125;-64
2023/06/29 11:06:53;;;;;;;20.40;14.65;;;21.80;99.90;;;;;;4976901;28;20081;-64
2023/06/29 11:09:19;;;;;;;21.88;13.98;;;21.70;99.90;;;;;;4976827;28;20431;-63
2023/06/29 11:11:47;;;;;;;19.00;13.07;;;21.60;99.90;;;;;;4976592;28;20082;-64
2023/06/29 11:14:14;;;;;;;20.30;12.90;;;21.60;99.90;;;;;;4976600;28;20109;-64
2023/06/29 11:16:40;;;;;;;19.35;12.70;;;21.60;99.90;;;;;;4975950;28;20124;-63
2023/06/29 11:19:10;;;;;;;22.45;13.80;;;21.60;99.90;;;;;;4976922;28;20050;-64
2023/06/29 11:21:36;;;;;;;20.05;14.25;;;21.60;99.90;;;;;;4976512;28;20480;-64
2023/06/29 11:24:02;;;;;;;22.10;13.73;;;21.60;99.90;;;;;;4976452;28;20050;-64
2023/06/29 11:26:28;;;;;;;20.58;14.10;;;21.70;99.90;;;;;;4975261;28;20474;-64
2023/06/29 11:28:54;;;;;;;22.05;14.20;;;21.80;99.90;;;;;;4975361;28;20057;-64
2023/06/29 11:31:20;;;;;;;21.63;15.23;;;21.80;99.90;;;;;;4976256;28;20363;-65
2023/06/29 11:33:50;;;;;;;21.10;14.13;;;22.00;99.90;;;;;;4976665;28;20058;-64
2023/06/29 11:36:29;;;;;;;21.65;14.52;;;22.10;99.90;;;;;;4976614;28;20134;-64
2023/06/29 11:39:04;;;;;;;19.27;14.20;;;22.30;99.90;;;;;;4975446;28;20053;-64
2023/06/29 11:41:31;;;;;;;23.95;14.38;;;22.50;99.90;;;;;;4976026;28;20101;-64
2023/06/29 11:44:00;;;;;;;21.70;14.50;;;22.60;99.90;;;;;;4976752;28;20043;-64
2023/06/29 11:46:26;;;;;;;21.90;14.52;;;22.70;99.90;;;;;;4976117;28;20053;-65
2023/06/29 11:48:56;;;;;;;24.52;14.93;;;22.90;99.90;;;;;;4976077;28;20043;-65
2023/06/29 11:51:25;;;;;;;22.98;15.88;;;23.00;99.90;;;;;;4976032;28;20045;-63
2023/06/29 11:53:56;;;;;;;21.52;14.13;;;23.10;99.90;;;;;;4976315;28;20038;-63
2023/06/29 11:56:40;;;;;;;23.55;15.10;;;23.20;99.90;;;;;;4976401;28;20109;-63
2023/06/29 11:59:10;;;;;;;22.13;14.40;;;23.30;99.90;;;;;;4976779;28;20087;-64
2023/06/29 12:01:38;;;;;;;20.20;14.07;;;23.50;99.90;;;;;;4975703;28;20042;-63
2023/06/29 12:04:14;;;;;;;20.45;13.82;;;23.60;99.90;;;;;;4975749;28;20125;-64
2023/06/29 12:06:56;;;;;;;20.63;14.18;;;23.80;99.90;;;;;;4975763;28;20472;-64
2023/06/29 12:09:29;;;;;;;19.10;13.27;;;24.10;99.90;;;;;;4975597;28;20390;-63
2023/06/29 12:11:57;;;;;;;16.77;12.35;;;24.30;99.90;;;;;;4975398;28;20491;-64
2023/06/29 12:14:23;;;;;;;18.15;12.43;;;24.50;99.90;;;;;;4959079;28;20475;-64
2023/06/29 12:16:51;;;;;;;17.55;12.35;;;24.60;99.90;;;;;;4975009;28;20053;-64
2023/06/29 12:19:16;;;;;;;17.77;12.27;;;24.50;99.90;;;;;;4975571;28;20090;-64
2023/06/29 12:21:42;;;;;;;17.92;12.93;;;24.50;99.90;;;;;;4975617;28;20074;-64
2023/06/29 12:24:08;;;;;;;17.75;12.40;;;24.70;99.90;;;;;;4976617;28;20047;-64
2023/06/29 12:26:33;;;;;;;19.90;12.80;;;24.80;99.90;;;;;;4975496;28;20039;-63
2023/06/29 12:28:59;;;;;;;16.75;12.02;;;24.80;99.90;;;;;;4975445;28;20070;-63